sensor_id;sensor_type;location;lat;lon;timestamp;temperature;humidity
14733;DHT22;7457;50.960;6.830;2023-11-21T00:02:18;8.30;100.00
14733;DHT22;7457;50.960;6.830;2023-11-21T00:04:43;8.30;100.00
14733;DHT22;7457;50.960;6.830;2023-11-21T00:07:09;8.30;100.00
14733;DHT22;7457;50.960;6.830;2023-11-21T00:09:35;8.30;100.00
14733;DHT22;7457;50.960;6.830;2023-11-21T00:12:02;8.30;100.00
14733;DHT22;7457;50.960;6.830;2023-11-21T00:14:28;8.30;100.00
14733;DHT22;7457;50.960;6.830;2023-11-21T00:16:53;8.30;100.00
14733;DHT22;7457;50.960;6.830;2023-11-21T00:19:19;8.30;100.00
14733;DHT22;7457;50.960;6.830;2023-11-21T00:21:45;8.30;100.00
14733;DHT22;7457;50.960;6.830;2023-11-21T00:24:11;8.30;100.00
14733;DHT22;7457;50.960;6.830;2023-11-21T00:26:39;8.30;100.00
14733;DHT22;7457;50.960;6.830;2023-11-21T00:29:05;8.30;100.00
14733;DHT22;7457;50.960;6.830;2023-11-21T00:31:36;8.30;100.00
14733;DHT22;7457;50.960;6.830;2023-11-21T00:34:05;8.30;100.00
14733;DHT22;7457;50.960;6.830;2023-11-21T00:36:31;8.30;100.00
14733;DHT22;7457;50.960;6.830;2023-11-21T00:38:58;8.30;100.00
14733;DHT22;7457;50.960;6.830;2023-11-21T00:41:23;8.30;100.00
14733;DHT22;7457;50.960;6.830;2023-11-21T00:43:49;8.30;100.00
14733;DHT22;7457;50.960;6.830;2023-11-21T00:46:14;8.30;100.00
14733;DHT22;7457;50.960;6.830;2023-11-21T00:48:40;8.30;100.00
14733;DHT22;7457;50.960;6.830;2023-11-21T00:51:06;8.30;100.00
14733;DHT22;7457;50.960;6.830;2023-11-21T00:53:32;8.30;100.00
14733;DHT22;7457;50.960;6.830;2023-11-21T00:55:57;8.30;100.00
14733;DHT22;7457;50.960;6.830;2023-11-21T00:58:24;8.30;100.00
14733;DHT22;7457;50.960;6.830;2023-11-21T01:00:50;8.30;100.00
14733;DHT22;7457;50.960;6.830;2023-11-21T01:03:15;8.20;100.00
14733;DHT22;7457;50.960;6.830;2023-11-21T01:05:41;8.20;100.00
14733;DHT22;7457;50.960;6.830;2023-11-21T01:08:07;8.20;100.00
14733;DHT22;7457;50.960;6.830;2023-11-21T01:10:32;8.20;100.00
14733;DHT22;7457;50.960;6.830;2023-11-21T01:12:59;8.20;100.00
14733;DHT22;7457;50.960;6.830;2023-11-21T01:15:25;8.20;100.00
14733;DHT22;7457;50.960;6.830;2023-11-21T01:17:51;8.20;100.00
14733;DHT22;7457;50.960;6.830;2023-11-21T01:20:17;8.20;100.00
14733;DHT22;7457;50.960;6.830;2023-11-21T01:22:43;8.20;100.00
14733;DHT22;7457;50.960;6.830;2023-11-21T01:25:10;8.20;100.00
14733;DHT22;7457;50.960;6.830;2023-11-21T01:27:36;8.10;100.00
14733;DHT22;7457;50.960;6.830;2023-11-21T01:30:05;8.10;100.00
14733;DHT22;7457;50.960;6.830;2023-11-21T01:32:33;8.10;100.00
14733;DHT22;7457;50.960;6.830;2023-11-21T01:35:00;8.00;100.00
14733;DHT22;7457;50.960;6.830;2023-11-21T01:37:25;7.90;100.00
14733;DHT22;7457;50.960;6.830;2023-11-21T01:39:53;7.90;100.00
14733;DHT22;7457;50.960;6.830;2023-11-21T01:42:21;7.80;100.00
14733;DHT22;7457;50.960;6.830;2023-11-21T01:44:46;7.80;100.00
14733;DHT22;7457;50.960;6.830;2023-11-21T01:47:13;7.70;100.00
14733;DHT22;7457;50.960;6.830;2023-11-21T01:49:39;7.70;100.00
14733;DHT22;7457;50.960;6.830;2023-11-21T01:52:05;7.70;100.00
14733;DHT22;7457;50.960;6.830;2023-11-21T01:54:32;7.70;100.00
14733;DHT22;7457;50.960;6.830;2023-11-21T01:57:00;7.70;100.00
14733;DHT22;7457;50.960;6.830;2023-11-21T01:59:35;7.70;100.00
14733;DHT22;7457;50.960;6.830;2023-11-21T02:02:03;7.70;100.00
14733;DHT22;7457;50.960;6.830;2023-11-21T02:04:31;7.70;100.00
14733;DHT22;7457;50.960;6.830;2023-11-21T02:06:57;7.60;100.00
14733;DHT22;7457;50.960;6.830;2023-11-21T02:09:27;7.60;100.00
14733;DHT22;7457;50.960;6.830;2023-11-21T02:11:53;7.50;100.00
14733;DHT22;7457;50.960;6.830;2023-11-21T02:14:20;7.40;100.00
14733;DHT22;7457;50.960;6.830;2023-11-21T02:16:51;7.40;100.00
14733;DHT22;7457;50.960;6.830;2023-11-21T02:19:21;7.40;100.00
14733;DHT22;7457;50.960;6.830;2023-11-21T02:21:51;7.40;100.00
14733;DHT22;7457;50.960;6.830;2023-11-21T02:24:21;7.40;100.00
14733;DHT22;7457;50.960;6.830;2023-11-21T02:26:48;7.40;100.00
14733;DHT22;7457;50.960;6.830;2023-11-21T02:29:14;7.40;100.00
14733;DHT22;7457;50.960;6.830;2023-11-21T02:31:42;7.50;100.00
14733;DHT22;7457;50.960;6.830;2023-11-21T02:34:17;7.50;100.00
14733;DHT22;7457;50.960;6.830;2023-11-21T02:36:44;7.50;100.00
14733;DHT22;7457;50.960;6.830;2023-11-21T02:39:10;7.60;100.00
14733;DHT22;7457;50.960;6.830;2023-11-21T02:41:37;7.60;100.00
14733;DHT22;7457;50.960;6.830;2023-11-21T02:44:04;7.60;100.00
14733;DHT22;7457;50.960;6.830;2023-11-21T02:46:32;7.60;100.00
14733;DHT22;7457;50.960;6.830;2023-11-21T02:49:05;7.60;100.00
14733;DHT22;7457;50.960;6.830;2023-11-21T02:51:33;7.60;100.00
14733;DHT22;7457;50.960;6.830;2023-11-21T02:53:59;7.60;100.00
14733;DHT22;7457;50.960;6.830;2023-11-21T02:56:26;7.60;100.00
14733;DHT22;7457;50.960;6.830;2023-11-21T02:58:52;7.60;100.00
14733;DHT22;7457;50.960;6.830;2023-11-21T03:01:18;7.60;100.00
14733;DHT22;7457;50.960;6.830;2023-11-21T03:03:44;7.60;100.00
14733;DHT22;7457;50.960;6.830;2023-11-21T03:06:09;7.60;100.00
14733;DHT22;7457;50.960;6.830;2023-11-21T03:08:35;7.60;100.00
14733;DHT22;7457;50.960;6.830;2023-11-21T03:11:01;7.60;100.00
14733;DHT22;7457;50.960;6.830;2023-11-21T03:13:29;7.60;100.00
14733;DHT22;7457;50.960;6.830;2023-11-21T03:15:54;7.60;100.00
14733;DHT22;7457;50.960;6.830;2023-11-21T03:18:20;7.60;100.00
14733;DHT22;7457;50.960;6.830;2023-11-21T03:20:47;7.60;100.00
14733;DHT22;7457;50.960;6.830;2023-11-21T03:23:13;7.70;100.00
14733;DHT22;7457;50.960;6.830;2023-11-21T03:25:39;7.70;100.00
14733;DHT22;7457;50.960;6.830;2023-11-21T03:28:04;7.60;100.00
14733;DHT22;7457;50.960;6.830;2023-11-21T03:30:30;7.70;100.00
14733;DHT22;7457;50.960;6.830;2023-11-21T03:32:56;7.70;100.00
14733;DHT22;7457;50.960;6.830;2023-11-21T03:35:22;7.70;100.00
14733;DHT22;7457;50.960;6.830;2023-11-21T03:37:48;7.70;100.00
14733;DHT22;7457;50.960;6.830;2023-11-21T03:40:14;7.70;100.00
14733;DHT22;7457;50.960;6.830;2023-11-21T03:42:40;7.70;100.00
14733;DHT22;7457;50.960;6.830;2023-11-21T03:45:06;7.70;100.00
14733;DHT22;7457;50.960;6.830;2023-11-21T03:47:32;7.70;100.00
14733;DHT22;7457;50.960;6.830;2023-11-21T03:49:58;7.70;100.00
14733;DHT22;7457;50.960;6.830;2023-11-21T03:52:24;7.70;100.00
14733;DHT22;7457;50.960;6.830;2023-11-21T03:54:49;7.70;100.00
14733;DHT22;7457;50.960;6.830;2023-11-21T03:57:15;7.70;100.00
14733;DHT22;7457;50.960;6.830;2023-11-21T03:59:41;7.70;100.00
14733;DHT22;7457;50.960;6.830;2023-11-21T04:02:07;7.70;100.00
14733;DHT22;7457;50.960;6.830;2023-11-21T04:04:34;7.70;100.00
14733;DHT22;7457;50.960;6.830;2023-11-21T04:06:59;7.70;100.00
14733;DHT22;7457;50.960;6.830;2023-11-21T04:09:25;7.70;100.00
14733;DHT22;7457;50.960;6.830;2023-11-21T04:11:52;7.80;100.00
14733;DHT22;7457;50.960;6.830;2023-11-21T04:14:18;7.80;100.00
14733;DHT22;7457;50.960;6.830;2023-11-21T04:16:44;7.80;100.00
14733;DHT22;7457;50.960;6.830;2023-11-21T04:19:10;7.80;100.00
14733;DHT22;7457;50.960;6.830;2023-11-21T04:21:36;7.80;100.00
14733;DHT22;7457;50.960;6.830;2023-11-21T04:24:02;7.80;100.00
14733;DHT22;7457;50.960;6.830;2023-11-21T04:26:28;7.80;100.00
14733;DHT22;7457;50.960;6.830;2023-11-21T04:28:53;7.80;100.00
14733;DHT22;7457;50.960;6.830;2023-11-21T04:31:19;7.80;100.00
14733;DHT22;7457;50.960;6.830;2023-11-21T04:33:45;7.80;100.00
14733;DHT22;7457;50.960;6.830;2023-11-21T04:36:10;7.80;100.00
14733;DHT22;7457;50.960;6.830;2023-11-21T04:38:36;7.80;100.00
14733;DHT22;7457;50.960;6.830;2023-11-21T04:41:02;7.80;100.00
14733;DHT22;7457;50.960;6.830;2023-11-21T04:43:27;7.70;100.00
14733;DHT22;7457;50.960;6.830;2023-11-21T04:45:54;7.80;100.00
14733;DHT22;7457;50.960;6.830;2023-11-21T04:48:20;7.80;100.00
14733;DHT22;7457;50.960;6.830;2023-11-21T04:50:45;7.70;100.00
14733;DHT22;7457;50.960;6.830;2023-11-21T04:53:11;7.70;100.00
14733;DHT22;7457;50.960;6.830;2023-11-21T04:55:43;7.70;100.00
14733;DHT22;7457;50.960;6.830;2023-11-21T04:58:09;7.70;100.00
14733;DHT22;7457;50.960;6.830;2023-11-21T05:00:35;7.70;100.00
14733;DHT22;7457;50.960;6.830;2023-11-21T05:03:02;7.60;100.00
14733;DHT22;7457;50.960;6.830;2023-11-21T05:05:29;7.60;100.00
14733;DHT22;7457;50.960;6.830;2023-11-21T05:07:55;7.60;100.00
14733;DHT22;7457;50.960;6.830;2023-11-21T05:10:21;7.60;100.00
14733;DHT22;7457;50.960;6.830;2023-11-21T05:12:48;7.50;100.00
14733;DHT22;7457;50.960;6.830;2023-11-21T05:15:16;7.50;100.00
14733;DHT22;7457;50.960;6.830;2023-11-21T05:17:43;7.50;100.00
14733;DHT22;7457;50.960;6.830;2023-11-21T05:20:13;7.50;100.00
14733;DHT22;7457;50.960;6.830;2023-11-21T05:22:40;7.50;100.00
14733;DHT22;7457;50.960;6.830;2023-11-21T05:25:06;7.40;100.00
14733;DHT22;7457;50.960;6.830;2023-11-21T05:27:36;7.40;100.00
14733;DHT22;7457;50.960;6.830;2023-11-21T05:30:03;7.40;100.00
14733;DHT22;7457;50.960;6.830;2023-11-21T05:32:31;7.40;100.00
14733;DHT22;7457;50.960;6.830;2023-11-21T05:34:56;7.40;100.00
14733;DHT22;7457;50.960;6.830;2023-11-21T05:37:22;7.40;100.00
14733;DHT22;7457;50.960;6.830;2023-11-21T05:39:49;7.40;100.00
14733;DHT22;7457;50.960;6.830;2023-11-21T05:42:14;7.40;100.00
14733;DHT22;7457;50.960;6.830;2023-11-21T05:44:43;7.40;100.00
14733;DHT22;7457;50.960;6.830;2023-11-21T05:47:09;7.40;100.00
14733;DHT22;7457;50.960;6.830;2023-11-21T05:49:35;7.30;100.00
14733;DHT22;7457;50.960;6.830;2023-11-21T05:52:01;7.30;100.00
14733;DHT22;7457;50.960;6.830;2023-11-21T05:54:27;7.30;100.00
14733;DHT22;7457;50.960;6.830;2023-11-21T05:56:52;7.30;100.00
14733;DHT22;7457;50.960;6.830;2023-11-21T05:59:18;7.30;100.00
14733;DHT22;7457;50.960;6.830;2023-11-21T06:01:44;7.30;100.00
14733;DHT22;7457;50.960;6.830;2023-11-21T06:04:11;7.30;100.00
14733;DHT22;7457;50.960;6.830;2023-11-21T06:06:36;7.30;100.00
14733;DHT22;7457;50.960;6.830;2023-11-21T06:09:02;7.30;100.00
14733;DHT22;7457;50.960;6.830;2023-11-21T06:11:28;7.20;100.00
14733;DHT22;7457;50.960;6.830;2023-11-21T06:13:54;7.20;100.00
14733;DHT22;7457;50.960;6.830;2023-11-21T06:16:20;7.20;100.00
14733;DHT22;7457;50.960;6.830;2023-11-21T06:18:46;7.20;100.00
14733;DHT22;7457;50.960;6.830;2023-11-21T06:21:12;7.20;100.00
14733;DHT22;7457;50.960;6.830;2023-11-21T06:23:39;7.20;100.00
14733;DHT22;7457;50.960;6.830;2023-11-21T06:26:05;7.20;100.00
14733;DHT22;7457;50.960;6.830;2023-11-21T06:28:32;7.20;100.00
14733;DHT22;7457;50.960;6.830;2023-11-21T06:30:57;7.20;100.00
14733;DHT22;7457;50.960;6.830;2023-11-21T06:33:24;7.30;100.00
14733;DHT22;7457;50.960;6.830;2023-11-21T06:35:50;7.30;100.00
14733;DHT22;7457;50.960;6.830;2023-11-21T06:38:16;7.30;100.00
14733;DHT22;7457;50.960;6.830;2023-11-21T06:40:42;7.30;100.00
14733;DHT22;7457;50.960;6.830;2023-11-21T06:43:09;7.30;100.00
14733;DHT22;7457;50.960;6.830;2023-11-21T06:45:35;7.30;100.00
14733;DHT22;7457;50.960;6.830;2023-11-21T06:48:01;7.30;100.00
14733;DHT22;7457;50.960;6.830;2023-11-21T06:50:26;7.30;100.00
14733;DHT22;7457;50.960;6.830;2023-11-21T06:52:52;7.30;100.00
14733;DHT22;7457;50.960;6.830;2023-11-21T06:55:17;7.30;100.00
14733;DHT22;7457;50.960;6.830;2023-11-21T06:57:43;7.30;100.00
14733;DHT22;7457;50.960;6.830;2023-11-21T07:00:10;7.30;100.00
14733;DHT22;7457;50.960;6.830;2023-11-21T07:02:36;7.40;100.00
14733;DHT22;7457;50.960;6.830;2023-11-21T07:05:02;7.40;100.00
14733;DHT22;7457;50.960;6.830;2023-11-21T07:07:28;7.40;100.00
14733;DHT22;7457;50.960;6.830;2023-11-21T07:09:54;7.40;100.00
14733;DHT22;7457;50.960;6.830;2023-11-21T07:12:19;7.40;100.00
14733;DHT22;7457;50.960;6.830;2023-11-21T07:14:45;7.40;100.00
14733;DHT22;7457;50.960;6.830;2023-11-21T07:17:11;7.40;100.00
14733;DHT22;7457;50.960;6.830;2023-11-21T07:19:38;7.40;100.00
14733;DHT22;7457;50.960;6.830;2023-11-21T07:22:04;7.40;100.00
14733;DHT22;7457;50.960;6.830;2023-11-21T07:24:31;7.40;100.00
14733;DHT22;7457;50.960;6.830;2023-11-21T07:26:57;7.50;100.00
14733;DHT22;7457;50.960;6.830;2023-11-21T07:29:24;7.50;100.00
14733;DHT22;7457;50.960;6.830;2023-11-21T07:31:52;7.60;100.00
14733;DHT22;7457;50.960;6.830;2023-11-21T07:34:19;7.60;100.00
14733;DHT22;7457;50.960;6.830;2023-11-21T07:36:44;7.70;100.00
14733;DHT22;7457;50.960;6.830;2023-11-21T07:39:10;7.70;100.00
14733;DHT22;7457;50.960;6.830;2023-11-21T07:41:36;7.80;100.00
14733;DHT22;7457;50.960;6.830;2023-11-21T07:44:03;7.90;100.00
14733;DHT22;7457;50.960;6.830;2023-11-21T07:46:29;7.90;100.00
14733;DHT22;7457;50.960;6.830;2023-11-21T07:48:54;8.00;100.00
14733;DHT22;7457;50.960;6.830;2023-11-21T07:51:20;8.00;100.00
14733;DHT22;7457;50.960;6.830;2023-11-21T07:53:46;8.10;100.00
14733;DHT22;7457;50.960;6.830;2023-11-21T07:56:11;8.10;100.00
14733;DHT22;7457;50.960;6.830;2023-11-21T07:58:38;8.10;100.00
14733;DHT22;7457;50.960;6.830;2023-11-21T08:01:04;8.20;100.00
14733;DHT22;7457;50.960;6.830;2023-11-21T08:03:30;8.20;100.00
14733;DHT22;7457;50.960;6.830;2023-11-21T08:05:59;8.20;100.00
14733;DHT22;7457;50.960;6.830;2023-11-21T08:08:25;8.30;100.00
14733;DHT22;7457;50.960;6.830;2023-11-21T08:10:51;8.40;100.00
14733;DHT22;7457;50.960;6.830;2023-11-21T08:13:26;8.40;100.00
14733;DHT22;7457;50.960;6.830;2023-11-21T08:15:56;8.50;100.00
14733;DHT22;7457;50.960;6.830;2023-11-21T08:18:27;8.60;100.00
14733;DHT22;7457;50.960;6.830;2023-11-21T08:20:52;8.60;100.00
14733;DHT22;7457;50.960;6.830;2023-11-21T08:23:20;8.70;100.00
14733;DHT22;7457;50.960;6.830;2023-11-21T08:25:46;8.60;100.00
14733;DHT22;7457;50.960;6.830;2023-11-21T08:28:13;8.70;100.00
14733;DHT22;7457;50.960;6.830;2023-11-21T08:30:42;8.70;100.00
14733;DHT22;7457;50.960;6.830;2023-11-21T08:33:08;8.70;100.00
14733;DHT22;7457;50.960;6.830;2023-11-21T08:35:37;8.70;100.00
14733;DHT22;7457;50.960;6.830;2023-11-21T08:38:03;8.70;100.00
14733;DHT22;7457;50.960;6.830;2023-11-21T08:40:29;8.70;100.00
14733;DHT22;7457;50.960;6.830;2023-11-21T08:42:55;8.80;100.00
14733;DHT22;7457;50.960;6.830;2023-11-21T08:45:22;8.70;100.00
14733;DHT22;7457;50.960;6.830;2023-11-21T08:47:47;8.80;100.00
14733;DHT22;7457;50.960;6.830;2023-11-21T08:50:13;8.80;100.00
14733;DHT22;7457;50.960;6.830;2023-11-21T08:52:39;8.80;100.00
14733;DHT22;7457;50.960;6.830;2023-11-21T08:55:06;8.80;100.00
14733;DHT22;7457;50.960;6.830;2023-11-21T08:57:38;8.80;100.00
14733;DHT22;7457;50.960;6.830;2023-11-21T09:00:04;8.80;100.00
14733;DHT22;7457;50.960;6.830;2023-11-21T09:02:37;8.80;100.00
14733;DHT22;7457;50.960;6.830;2023-11-21T09:05:04;8.90;100.00
14733;DHT22;7457;50.960;6.830;2023-11-21T09:07:30;8.90;100.00
14733;DHT22;7457;50.960;6.830;2023-11-21T09:09:56;8.90;100.00
14733;DHT22;7457;50.960;6.830;2023-11-21T09:12:21;8.90;100.00
14733;DHT22;7457;50.960;6.830;2023-11-21T09:14:47;9.00;100.00
14733;DHT22;7457;50.960;6.830;2023-11-21T09:17:13;9.00;100.00
14733;DHT22;7457;50.960;6.830;2023-11-21T09:19:40;9.00;100.00
14733;DHT22;7457;50.960;6.830;2023-11-21T09:22:06;9.10;100.00
14733;DHT22;7457;50.960;6.830;2023-11-21T09:24:35;9.10;100.00
14733;DHT22;7457;50.960;6.830;2023-11-21T09:27:01;9.10;100.00
14733;DHT22;7457;50.960;6.830;2023-11-21T09:29:27;9.10;100.00
14733;DHT22;7457;50.960;6.830;2023-11-21T09:31:53;9.10;100.00
14733;DHT22;7457;50.960;6.830;2023-11-21T09:34:23;9.10;100.00
14733;DHT22;7457;50.960;6.830;2023-11-21T09:36:48;9.10;100.00
14733;DHT22;7457;50.960;6.830;2023-11-21T09:39:15;9.10;100.00
14733;DHT22;7457;50.960;6.830;2023-11-21T09:41:44;9.10;100.00
14733;DHT22;7457;50.960;6.830;2023-11-21T09:44:13;9.10;100.00
14733;DHT22;7457;50.960;6.830;2023-11-21T09:46:42;9.10;100.00
14733;DHT22;7457;50.960;6.830;2023-11-21T09:49:11;9.10;100.00
14733;DHT22;7457;50.960;6.830;2023-11-21T09:51:45;9.20;100.00
14733;DHT22;7457;50.960;6.830;2023-11-21T09:54:14;9.20;100.00
14733;DHT22;7457;50.960;6.830;2023-11-21T09:56:41;9.30;100.00
14733;DHT22;7457;50.960;6.830;2023-11-21T09:59:13;9.30;100.00
14733;DHT22;7457;50.960;6.830;2023-11-21T10:01:39;9.30;100.00
14733;DHT22;7457;50.960;6.830;2023-11-21T10:04:06;9.40;100.00
14733;DHT22;7457;50.960;6.830;2023-11-21T10:06:41;9.40;100.00
14733;DHT22;7457;50.960;6.830;2023-11-21T10:09:10;9.40;100.00
14733;DHT22;7457;50.960;6.830;2023-11-21T10:11:40;9.40;100.00
14733;DHT22;7457;50.960;6.830;2023-11-21T10:14:08;9.40;100.00
14733;DHT22;7457;50.960;6.830;2023-11-21T10:16:37;9.40;100.00
14733;DHT22;7457;50.960;6.830;2023-11-21T10:19:05;9.50;100.00
14733;DHT22;7457;50.960;6.830;2023-11-21T10:21:34;9.50;100.00
14733;DHT22;7457;50.960;6.830;2023-11-21T10:24:00;9.50;100.00
14733;DHT22;7457;50.960;6.830;2023-11-21T10:26:27;9.50;100.00
14733;DHT22;7457;50.960;6.830;2023-11-21T10:29:00;9.50;100.00
14733;DHT22;7457;50.960;6.830;2023-11-21T10:31:30;9.50;100.00
14733;DHT22;7457;50.960;6.830;2023-11-21T10:34:17;9.60;100.00
14733;DHT22;7457;50.960;6.830;2023-11-21T10:36:43;9.60;100.00
14733;DHT22;7457;50.960;6.830;2023-11-21T10:39:09;9.70;100.00
14733;DHT22;7457;50.960;6.830;2023-11-21T10:41:39;9.70;100.00
14733;DHT22;7457;50.960;6.830;2023-11-21T10:44:05;9.80;100.00
14733;DHT22;7457;50.960;6.830;2023-11-21T10:46:34;9.90;100.00
14733;DHT22;7457;50.960;6.830;2023-11-21T10:49:00;9.90;100.00
14733;DHT22;7457;50.960;6.830;2023-11-21T10:51:27;9.90;100.00
14733;DHT22;7457;50.960;6.830;2023-11-21T10:53:53;9.90;100.00
14733;DHT22;7457;50.960;6.830;2023-11-21T10:56:23;9.90;100.00
14733;DHT22;7457;50.960;6.830;2023-11-21T10:58:49;9.90;100.00
14733;DHT22;7457;50.960;6.830;2023-11-21T11:01:19;9.90;100.00
14733;DHT22;7457;50.960;6.830;2023-11-21T11:03:47;9.80;100.00
14733;DHT22;7457;50.960;6.830;2023-11-21T11:06:13;9.80;100.00
14733;DHT22;7457;50.960;6.830;2023-11-21T11:08:40;9.80;100.00
14733;DHT22;7457;50.960;6.830;2023-11-21T11:11:07;9.70;100.00
14733;DHT22;7457;50.960;6.830;2023-11-21T11:13:33;9.70;100.00
14733;DHT22;7457;50.960;6.830;2023-11-21T11:15:59;9.70;100.00
14733;DHT22;7457;50.960;6.830;2023-11-21T11:18:30;9.80;100.00
14733;DHT22;7457;50.960;6.830;2023-11-21T11:21:26;9.80;100.00
14733;DHT22;7457;50.960;6.830;2023-11-21T11:32:16;9.90;100.00
14733;DHT22;7457;50.960;6.830;2023-11-21T11:35:04;10.00;100.00
14733;DHT22;7457;50.960;6.830;2023-11-21T11:37:32;10.00;100.00
14733;DHT22;7457;50.960;6.830;2023-11-21T11:39:59;10.00;100.00
14733;DHT22;7457;50.960;6.830;2023-11-21T11:42:26;10.00;100.00
14733;DHT22;7457;50.960;6.830;2023-11-21T11:44:52;10.00;100.00
14733;DHT22;7457;50.960;6.830;2023-11-21T11:49:59;10.00;100.00
14733;DHT22;7457;50.960;6.830;2023-11-21T11:52:38;10.10;100.00
14733;DHT22;7457;50.960;6.830;2023-11-21T11:55:06;10.20;100.00
14733;DHT22;7457;50.960;6.830;2023-11-21T11:57:34;10.20;100.00
14733;DHT22;7457;50.960;6.830;2023-11-21T12:02:52;10.30;100.00
14733;DHT22;7457;50.960;6.830;2023-11-21T12:05:22;10.20;100.00
14733;DHT22;7457;50.960;6.830;2023-11-21T12:07:52;10.30;100.00
14733;DHT22;7457;50.960;6.830;2023-11-21T12:10:21;10.30;100.00
14733;DHT22;7457;50.960;6.830;2023-11-21T12:12:53;10.40;100.00
14733;DHT22;7457;50.960;6.830;2023-11-21T12:15:19;10.40;100.00
14733;DHT22;7457;50.960;6.830;2023-11-21T12:17:46;10.50;100.00
14733;DHT22;7457;50.960;6.830;2023-11-21T12:20:13;10.50;100.00
14733;DHT22;7457;50.960;6.830;2023-11-21T12:22:53;10.50;100.00
14733;DHT22;7457;50.960;6.830;2023-11-21T12:25:20;10.40;100.00
14733;DHT22;7457;50.960;6.830;2023-11-21T12:27:50;10.30;100.00
14733;DHT22;7457;50.960;6.830;2023-11-21T12:30:21;10.20;100.00
14733;DHT22;7457;50.960;6.830;2023-11-21T12:32:55;10.20;100.00
14733;DHT22;7457;50.960;6.830;2023-11-21T12:35:31;10.20;100.00
14733;DHT22;7457;50.960;6.830;2023-11-21T12:38:01;10.20;100.00
14733;DHT22;7457;50.960;6.830;2023-11-21T12:40:30;10.30;100.00
14733;DHT22;7457;50.960;6.830;2023-11-21T12:42:57;10.40;100.00
14733;DHT22;7457;50.960;6.830;2023-11-21T12:45:27;10.50;100.00
14733;DHT22;7457;50.960;6.830;2023-11-21T12:47:56;10.60;100.00
14733;DHT22;7457;50.960;6.830;2023-11-21T12:50:26;10.60;100.00
14733;DHT22;7457;50.960;6.830;2023-11-21T12:53:23;10.60;100.00
14733;DHT22;7457;50.960;6.830;2023-11-21T12:55:48;10.60;100.00
14733;DHT22;7457;50.960;6.830;2023-11-21T12:58:17;10.70;100.00
14733;DHT22;7457;50.960;6.830;2023-11-21T13:00:47;10.70;100.00
14733;DHT22;7457;50.960;6.830;2023-11-21T13:03:14;10.70;100.00
14733;DHT22;7457;50.960;6.830;2023-11-21T13:05:46;10.80;100.00
14733;DHT22;7457;50.960;6.830;2023-11-21T13:08:13;10.80;100.00
14733;DHT22;7457;50.960;6.830;2023-11-21T13:10:40;10.80;100.00
14733;DHT22;7457;50.960;6.830;2023-11-21T13:13:09;10.80;100.00
14733;DHT22;7457;50.960;6.830;2023-11-21T13:15:39;10.80;100.00
14733;DHT22;7457;50.960;6.830;2023-11-21T13:18:06;10.90;100.00
14733;DHT22;7457;50.960;6.830;2023-11-21T13:20:32;10.80;100.00
14733;DHT22;7457;50.960;6.830;2023-11-21T13:22:58;10.80;100.00
14733;DHT22;7457;50.960;6.830;2023-11-21T13:25:25;10.80;100.00
14733;DHT22;7457;50.960;6.830;2023-11-21T13:27:56;10.70;100.00
14733;DHT22;7457;50.960;6.830;2023-11-21T13:30:22;10.70;100.00
14733;DHT22;7457;50.960;6.830;2023-11-21T13:32:56;10.60;100.00
14733;DHT22;7457;50.960;6.830;2023-11-21T13:35:28;10.60;100.00
14733;DHT22;7457;50.960;6.830;2023-11-21T13:38:18;10.50;100.00
14733;DHT22;7457;50.960;6.830;2023-11-21T13:40:49;10.50;100.00
14733;DHT22;7457;50.960;6.830;2023-11-21T13:43:18;10.50;100.00
14733;DHT22;7457;50.960;6.830;2023-11-21T13:45:46;10.40;100.00
14733;DHT22;7457;50.960;6.830;2023-11-21T13:48:13;10.40;100.00
14733;DHT22;7457;50.960;6.830;2023-11-21T13:50:47;10.40;100.00
14733;DHT22;7457;50.960;6.830;2023-11-21T13:53:34;10.40;100.00
14733;DHT22;7457;50.960;6.830;2023-11-21T13:56:02;10.40;100.00
14733;DHT22;7457;50.960;6.830;2023-11-21T13:58:28;10.30;100.00
14733;DHT22;7457;50.960;6.830;2023-11-21T14:01:10;10.30;100.00
14733;DHT22;7457;50.960;6.830;2023-11-21T14:04:00;10.30;100.00
14733;DHT22;7457;50.960;6.830;2023-11-21T14:06:42;10.30;100.00
14733;DHT22;7457;50.960;6.830;2023-11-21T14:09:23;10.30;100.00
14733;DHT22;7457;50.960;6.830;2023-11-21T14:11:58;10.30;100.00
14733;DHT22;7457;50.960;6.830;2023-11-21T14:14:26;10.20;100.00
14733;DHT22;7457;50.960;6.830;2023-11-21T14:16:53;10.20;100.00
14733;DHT22;7457;50.960;6.830;2023-11-21T14:19:20;10.20;100.00
14733;DHT22;7457;50.960;6.830;2023-11-21T14:21:46;10.20;100.00
14733;DHT22;7457;50.960;6.830;2023-11-21T14:24:14;10.20;100.00
14733;DHT22;7457;50.960;6.830;2023-11-21T14:26:44;10.20;100.00
14733;DHT22;7457;50.960;6.830;2023-11-21T14:29:14;10.10;100.00
14733;DHT22;7457;50.960;6.830;2023-11-21T14:31:43;10.10;100.00
14733;DHT22;7457;50.960;6.830;2023-11-21T14:34:09;10.10;100.00
14733;DHT22;7457;50.960;6.830;2023-11-21T14:36:37;10.10;100.00
14733;DHT22;7457;50.960;6.830;2023-11-21T14:39:04;10.00;100.00
14733;DHT22;7457;50.960;6.830;2023-11-21T14:41:35;10.00;100.00
14733;DHT22;7457;50.960;6.830;2023-11-21T14:44:02;10.00;100.00
14733;DHT22;7457;50.960;6.830;2023-11-21T14:46:29;9.90;100.00
14733;DHT22;7457;50.960;6.830;2023-11-21T14:48:55;9.90;100.00
14733;DHT22;7457;50.960;6.830;2023-11-21T14:51:37;9.90;100.00
14733;DHT22;7457;50.960;6.830;2023-11-21T14:54:22;9.80;100.00
14733;DHT22;7457;50.960;6.830;2023-11-21T14:57:04;9.80;100.00
14733;DHT22;7457;50.960;6.830;2023-11-21T14:59:35;9.80;100.00
14733;DHT22;7457;50.960;6.830;2023-11-21T15:02:00;9.80;100.00
14733;DHT22;7457;50.960;6.830;2023-11-21T15:04:41;9.80;100.00
14733;DHT22;7457;50.960;6.830;2023-11-21T15:07:08;9.70;100.00
14733;DHT22;7457;50.960;6.830;2023-11-21T15:09:34;9.70;100.00
14733;DHT22;7457;50.960;6.830;2023-11-21T15:12:00;9.70;100.00
14733;DHT22;7457;50.960;6.830;2023-11-21T15:14:41;9.70;100.00
14733;DHT22;7457;50.960;6.830;2023-11-21T15:17:07;9.70;100.00
14733;DHT22;7457;50.960;6.830;2023-11-21T15:19:33;9.70;100.00
14733;DHT22;7457;50.960;6.830;2023-11-21T15:21:59;9.70;100.00
14733;DHT22;7457;50.960;6.830;2023-11-21T15:24:26;9.70;100.00
14733;DHT22;7457;50.960;6.830;2023-11-21T15:26:52;9.60;100.00
14733;DHT22;7457;50.960;6.830;2023-11-21T15:29:18;9.60;100.00
14733;DHT22;7457;50.960;6.830;2023-11-21T15:31:46;9.60;100.00
14733;DHT22;7457;50.960;6.830;2023-11-21T15:34:14;9.60;100.00
14733;DHT22;7457;50.960;6.830;2023-11-21T15:36:40;9.60;100.00
14733;DHT22;7457;50.960;6.830;2023-11-21T15:39:06;9.60;100.00
14733;DHT22;7457;50.960;6.830;2023-11-21T15:41:34;9.60;100.00
14733;DHT22;7457;50.960;6.830;2023-11-21T15:44:00;9.50;100.00
14733;DHT22;7457;50.960;6.830;2023-11-21T15:46:25;9.50;100.00
14733;DHT22;7457;50.960;6.830;2023-11-21T15:48:51;9.50;100.00
14733;DHT22;7457;50.960;6.830;2023-11-21T15:51:20;9.50;100.00
14733;DHT22;7457;50.960;6.830;2023-11-21T15:53:45;9.50;100.00
14733;DHT22;7457;50.960;6.830;2023-11-21T15:56:11;9.50;100.00
14733;DHT22;7457;50.960;6.830;2023-11-21T15:58:41;9.50;100.00
14733;DHT22;7457;50.960;6.830;2023-11-21T16:01:10;9.50;100.00